Time;durP1;ratioP1;P1;durP2;ratioP2;P2;SDS_P1;SDS_P2;PMS_P1;PMS_P2;Temp;Humidity;BMP_temperature;BMP_pressure;BME280_temperature;BME280_humidity;BME280_pressure;Samples;Min_cycle;Max_cycle;Signal;HPM_P1;HPM_P2
2023/05/20 00:00:03;;;;;;;10.73;4.93;;;;;;;;;;4438940;32;20122;-78
2023/05/20 00:02:28;;;;;;;10.40;4.65;;;;;;;;;;4438687;32;20450;-78
2023/05/20 00:04:53;;;;;;;;;;;;;;;;;;4438669;32;20104;-76
2023/05/20 00:07:18;;;;;;;9.50;5.05;;;;;;;;;;4437012;32;19979;-79
2023/05/20 00:09:44;;;;;;;16.02;6.90;;;;;;;;;;4436834;32;20021;-78
2023/05/20 00:12:09;;;;;;;10.45;4.72;;;;;;;;;;4436890;32;20044;-78
2023/05/20 00:14:34;;;;;;;;;;;;;;;;;;4437547;32;20014;-78
2023/05/20 00:16:59;;;;;;;10.05;4.53;;;;;;;;;;4438472;32;19946;-78
2023/05/20 00:19:25;;;;;;;12.05;4.80;;;;;;;;;;4436403;32;20018;-78
2023/05/20 00:21:50;;;;;;;11.25;5.00;;;;;;;;;;4437118;32;20044;-78
2023/05/20 00:24:15;;;;;;;11.00;5.05;;;;;;;;;;4436718;32;20074;-78
2023/05/20 00:26:40;;;;;;;10.57;5.22;;;;;;;;;;4438810;32;20097;-79
2023/05/20 00:29:05;;;;;;;;;;;;;;;;;;4437375;32;20097;-78
2023/05/20 00:31:31;;;;;;;12.85;4.68;;;;;;;;;;4438405;32;20019;-78
2023/05/20 00:33:56;;;;;;;12.80;5.07;;;;;;;;;;4437616;32;20346;-78
2023/05/20 00:36:21;;;;;;;15.47;5.40;;;;;;;;;;4437229;32;20033;-77
2023/05/20 00:38:46;;;;;;;;;;;;;;;;;;4439981;32;20149;-79
2023/05/20 00:41:11;;;;;;;13.43;5.55;;;;;;;;;;4442672;32;19936;-76
2023/05/20 00:43:36;;;;;;;11.48;5.53;;;;;;;;;;4443288;32;20118;-77
2023/05/20 00:46:01;;;;;;;;;;;;;;;;;;4442036;32;20021;-78
2023/05/20 00:48:31;;;;;;;10.70;5.25;;;;;;;;;;4441499;32;19969;-78
2023/05/20 00:50:56;;;;;;;12.57;5.07;;;;;;;;;;4442133;32;20026;-78
2023/05/20 00:53:22;;;;;;;13.80;5.60;;;;;;;;;;4443936;32;20066;-78
2023/05/20 00:55:47;;;;;;;10.45;5.35;;;;;;;;;;4443792;32;20021;-78
2023/05/20 00:58:12;;;;;;;13.48;5.87;;;;;;;;;;4442100;32;20121;-78
2023/05/20 01:00:38;;;;;;;8.63;5.50;;;;;;;;;;4441029;32;20034;-78
2023/05/20 01:03:03;;;;;;;14.43;6.03;;;;;;;;;;4434685;32;20033;-78
2023/05/20 01:05:28;;;;;;;10.95;5.60;;;;;;;;;;4436567;32;20094;-78
2023/05/20 01:07:53;;;;;;;;;;;;;;;;;;4437844;32;20017;-78
2023/05/20 01:10:18;;;;;;;13.25;5.40;;;;;;;;;;4435301;32;19990;-78
2023/05/20 01:12:53;;;;;;;12.55;5.80;;;;;;;;;;4434834;32;20093;-79
2023/05/20 01:15:20;;;;;;;11.25;6.28;;;;;;;;;;4437321;32;20056;-78
2023/05/20 01:17:46;;;;;;;12.65;6.28;;;;;;;;;;4436777;32;20060;-78
2023/05/20 01:20:12;;;;;;;13.05;5.68;;;;;;;;;;4438062;32;20026;-78
2023/05/20 01:22:37;;;;;;;15.48;5.45;;;;;;;;;;4437922;32;20112;-79
2023/05/20 01:25:04;;;;;;;11.02;5.57;;;;;;;;;;4438620;32;20066;-78
2023/05/20 01:27:30;;;;;;;14.98;6.22;;;;;;;;;;4436176;32;20454;-79
2023/05/20 01:29:55;;;;;;;14.98;6.07;;;;;;;;;;4435732;32;20018;-76
2023/05/20 01:32:22;;;;;;;16.23;5.82;;;;;;;;;;4435477;32;20056;-78
2023/05/20 01:34:47;;;;;;;15.63;6.28;;;;;;;;;;4437195;32;20382;-78
2023/05/20 01:37:13;;;;;;;13.88;6.20;;;;;;;;;;4436531;32;20048;-78
2023/05/20 01:39:40;;;;;;;;;;;;;;;;;;4434943;32;20057;-78
2023/05/20 01:42:06;;;;;;;11.68;5.57;;;;;;;;;;4435209;32;19948;-77
2023/05/20 01:44:31;;;;;;;;;;;;;;;;;;4434262;32;20361;-78
2023/05/20 01:46:56;;;;;;;16.73;6.03;;;;;;;;;;4435216;32;19992;-78
2023/05/20 01:49:21;;;;;;;12.37;6.22;;;;;;;;;;4437582;32;20037;-77
2023/05/20 01:51:46;;;;;;;;;;;;;;;;;;4438064;32;20411;-77
2023/05/20 01:54:11;;;;;;;16.23;6.75;;;;;;;;;;4434188;32;19937;-77
2023/05/20 01:56:37;;;;;;;11.88;6.05;;;;;;;;;;4437287;32;20060;-77
2023/05/20 01:59:02;;;;;;;;;;;;;;;;;;4436616;32;20029;-78
2023/05/20 02:01:27;;;;;;;14.02;7.50;;;;;;;;;;4435317;32;19951;-78
2023/05/20 02:03:52;;;;;;;11.82;6.00;;;;;;;;;;4435207;32;20459;-78
2023/05/20 02:06:17;;;;;;;11.18;6.47;;;;;;;;;;4434938;32;20045;-78
2023/05/20 02:08:42;;;;;;;14.15;6.97;;;;;;;;;;4435824;32;20018;-78
2023/05/20 02:11:08;;;;;;;12.70;6.30;;;;;;;;;;4435307;32;20197;-79
2023/05/20 02:13:33;;;;;;;;;;;;;;;;;;4434376;32;20029;-78
2023/05/20 02:15:58;;;;;;;10.68;6.60;;;;;;;;;;4436700;32;19937;-77
2023/05/20 02:18:25;;;;;;;10.05;6.70;;;;;;;;;;4435366;32;20041;-77
2023/05/20 02:20:50;;;;;;;13.68;6.72;;;;;;;;;;4435128;32;20351;-78
2023/05/20 02:23:15;;;;;;;14.02;6.32;;;;;;;;;;4436821;32;20399;-78
2023/05/20 02:25:40;;;;;;;14.07;7.25;;;;;;;;;;4433838;32;20053;-78
2023/05/20 02:28:09;;;;;;;;;;;;;;;;;;4435844;32;20471;-78
2023/05/20 02:30:34;;;;;;;15.13;6.97;;;;;;;;;;4437444;32;19936;-79
2023/05/20 02:32:59;;;;;;;16.08;7.40;;;;;;;;;;4438633;32;20452;-78
2023/05/20 02:35:25;;;;;;;15.52;6.93;;;;;;;;;;4440434;32;20047;-78
2023/05/20 02:37:50;;;;;;;;;;;;;;;;;;4438797;32;20014;-79
2023/05/20 02:40:15;;;;;;;15.73;6.72;;;;;;;;;;4437291;32;19948;-78
2023/05/20 02:42:40;;;;;;;14.98;7.20;;;;;;;;;;4438835;32;20017;-78
2023/05/20 02:45:06;;;;;;;;;;;;;;;;;;4440698;32;20321;-78
2023/05/20 02:47:31;;;;;;;15.73;6.53;;;;;;;;;;4439900;32;19937;-78
2023/05/20 02:49:56;;;;;;;13.82;7.82;;;;;;;;;;4439005;32;20320;-78
2023/05/20 02:52:21;;;;;;;11.52;6.47;;;;;;;;;;4437267;32;20528;-77
2023/05/20 02:54:47;;;;;;;14.00;6.72;;;;;;;;;;4440337;32;20328;-78
2023/05/20 02:57:12;;;;;;;16.65;7.07;;;;;;;;;;4439918;32;20026;-78
2023/05/20 02:59:37;;;;;;;;;;;;;;;;;;4439504;32;20041;-78
2023/05/20 03:02:02;;;;;;;14.85;7.10;;;;;;;;;;4438969;32;19933;-78
2023/05/20 03:04:27;;;;;;;19.35;7.47;;;;;;;;;;4437478;32;20018;-78
2023/05/20 03:06:56;;;;;;;14.87;7.68;;;;;;;;;;4438489;32;20021;-78
2023/05/20 03:09:22;;;;;;;13.88;7.82;;;;;;;;;;4437150;32;20074;-78
2023/05/20 03:11:47;;;;;;;18.58;7.28;;;;;;;;;;4437710;32;20025;-78
2023/05/20 03:14:12;;;;;;;12.48;7.32;;;;;;;;;;4439672;32;20033;-79
2023/05/20 03:16:38;;;;;;;15.00;7.35;;;;;;;;;;4438902;32;20046;-78
2023/05/20 03:19:03;;;;;;;12.30;7.12;;;;;;;;;;4437224;32;20457;-78
2023/05/20 03:21:29;;;;;;;15.32;7.00;;;;;;;;;;4438753;32;20051;-78
2023/05/20 03:23:54;;;;;;;;;;;;;;;;;;4438497;32;20124;-78
2023/05/20 03:26:20;;;;;;;14.05;6.03;;;;;;;;;;4439583;32;19966;-79
2023/05/20 03:28:45;;;;;;;;;;;;;;;;;;4441876;32;20461;-78
2023/05/20 03:31:10;;;;;;;16.02;7.53;;;;;;;;;;4440226;32;19929;-78
2023/05/20 03:33:36;;;;;;;;;;;;;;;;;;4439586;32;20113;-78
2023/05/20 03:36:01;;;;;;;20.65;7.75;;;;;;;;;;4437547;32;20365;-78
2023/05/20 03:38:26;;;;;;;;;;;;;;;;;;4439120;32;20113;-78
2023/05/20 03:40:51;;;;;;;14.27;7.55;;;;;;;;;;4438652;32;19948;-78
2023/05/20 03:43:16;;;;;;;11.18;7.07;;;;;;;;;;4439226;32;20067;-79
2023/05/20 03:45:41;;;;;;;;;;;;;;;;;;4437063;32;20055;-78
2023/05/20 03:48:06;;;;;;;11.85;6.62;;;;;;;;;;4436032;32;20001;-78
2023/05/20 03:50:32;;;;;;;14.48;7.00;;;;;;;;;;4438435;32;20110;-77
2023/05/20 03:52:57;;;;;;;;;;;;;;;;;;4439830;32;20056;-78
2023/05/20 03:55:23;;;;;;;10.63;6.22;;;;;;;;;;4435249;32;19944;-78
2023/05/20 03:57:49;;;;;;;14.38;7.18;;;;;;;;;;4437016;32;20371;-79
2023/05/20 04:00:15;;;;;;;14.65;6.85;;;;;;;;;;4435226;32;20038;-78
2023/05/20 04:02:40;;;;;;;13.15;6.05;;;;;;;;;;4436863;32;20355;-79
2023/05/20 04:05:07;;;;;;;15.15;7.30;;;;;;;;;;4437022;32;20056;-78
2023/05/20 04:07:32;;;;;;;12.70;6.15;;;;;;;;;;4437213;32;20044;-78
2023/05/20 04:09:58;;;;;;;11.48;6.68;;;;;;;;;;4438063;32;20022;-78
2023/05/20 04:12:24;;;;;;;;;;;;;;;;;;4437069;32;20427;-78
2023/05/20 04:14:51;;;;;;;16.10;6.82;;;;;;;;;;4436622;32;19979;-78
2023/05/20 04:17:16;;;;;;;10.18;6.55;;;;;;;;;;4438251;32;20017;-79
2023/05/20 04:19:41;;;;;;;11.00;6.72;;;;;;;;;;4436400;32;20048;-79
2023/05/20 04:22:06;;;;;;;13.32;6.18;;;;;;;;;;4436484;32;20048;-79
2023/05/20 04:24:32;;;;;;;;;;;;;;;;;;4437558;32;20017;-77
2023/05/20 04:26:57;;;;;;;12.95;6.97;;;;;;;;;;4435398;32;19951;-78
2023/05/20 04:29:22;;;;;;;19.57;6.80;;;;;;;;;;4436331;32;20058;-78
2023/05/20 04:31:47;;;;;;;;;;;;;;;;;;4436581;32;20148;-78
2023/05/20 04:34:13;;;;;;;16.27;6.80;;;;;;;;;;4436478;32;19941;-78
2023/05/20 04:36:38;;;;;;;13.57;6.47;;;;;;;;;;4438477;32;20037;-76
2023/05/20 04:39:07;;;;;;;;;;;;;;;;;;4437095;32;20022;-77
2023/05/20 04:41:32;;;;;;;11.25;6.22;;;;;;;;;;4436112;32;20317;-77
2023/05/20 04:44:00;;;;;;;16.70;6.60;;;;;;;;;;4437390;32;20021;-77
2023/05/20 04:46:26;;;;;;;9.90;6.53;;;;;;;;;;4436679;32;20025;-77
2023/05/20 04:48:51;;;;;;;14.80;7.20;;;;;;;;;;4436011;32;20056;-77
2023/05/20 04:51:16;;;;;;;12.23;6.25;;;;;;;;;;4437591;32;20052;-78
2023/05/20 04:53:42;;;;;;;13.82;6.68;;;;;;;;;;4434788;32;20437;-77
2023/05/20 04:56:07;;;;;;;;;;;;;;;;;;4436422;32;20029;-77
2023/05/20 04:58:32;;;;;;;15.65;6.25;;;;;;;;;;4441112;32;19944;-78
2023/05/20 05:00:57;;;;;;;13.20;5.93;;;;;;;;;;4452509;32;20047;-78
2023/05/20 05:03:23;;;;;;;13.35;6.37;;;;;;;;;;4451779;32;20441;-78
2023/05/20 05:05:48;;;;;;;13.57;6.10;;;;;;;;;;4451711;32;20047;-78
2023/05/20 05:08:13;;;;;;;8.10;5.70;;;;;;;;;;4451638;32;20048;-78
2023/05/20 05:10:39;;;;;;;11.32;5.72;;;;;;;;;;4448945;32;20049;-78
2023/05/20 05:13:04;;;;;;;11.95;6.62;;;;;;;;;;4434839;32;20048;-77
2023/05/20 05:15:29;;;;;;;;;;;;;;;;;;4437354;32;20416;-78
2023/05/20 05:17:54;;;;;;;12.25;6.50;;;;;;;;;;4435725;32;19941;-78
2023/05/20 05:20:19;;;;;;;11.27;6.35;;;;;;;;;;4436962;32;20414;-78
2023/05/20 05:22:45;;;;;;;;;;;;;;;;;;4435861;32;20398;-78
2023/05/20 05:25:10;;;;;;;15.93;6.13;;;;;;;;;;4436484;32;19944;-77
2023/05/20 05:27:35;;;;;;;;;;;;;;;;;;4437512;32;20112;-78
2023/05/20 05:30:01;;;;;;;15.27;6.68;;;;;;;;;;4437054;32;20356;-77
2023/05/20 05:32:26;;;;;;;;;;;;;;;;;;4435724;32;20140;-77
2023/05/20 05:34:51;;;;;;;12.30;6.40;;;;;;;;;;4435547;32;19991;-77
2023/05/20 05:37:16;;;;;;;12.52;5.80;;;;;;;;;;4436811;32;20014;-77
2023/05/20 05:39:41;;;;;;;10.25;5.62;;;;;;;;;;4436254;32;20079;-78
2023/05/20 05:42:07;;;;;;;10.80;5.37;;;;;;;;;;4437465;32;20014;-78
2023/05/20 05:44:32;;;;;;;10.90;6.80;;;;;;;;;;4436936;32;20056;-79
2023/05/20 05:46:57;;;;;;;14.50;5.78;;;;;;;;;;4437530;32;20096;-78
2023/05/20 05:49:22;;;;;;;;;;;;;;;;;;4436439;32;20021;-78
2023/05/20 05:51:49;;;;;;;10.90;5.82;;;;;;;;;;4436028;32;19948;-78
2023/05/20 05:54:14;;;;;;;9.80;5.95;;;;;;;;;;4423964;32;20022;-78
2023/05/20 05:56:39;;;;;;;10.63;6.15;;;;;;;;;;4420961;32;20021;-77
2023/05/20 05:59:04;;;;;;;16.37;6.33;;;;;;;;;;4431279;32;20107;-78
2023/05/20 06:01:30;;;;;;;11.32;5.55;;;;;;;;;;4436791;32;20169;-79
2023/05/20 06:03:55;;;;;;;13.48;6.22;;;;;;;;;;4436034;32;20018;-79
2023/05/20 06:06:20;;;;;;;16.10;7.68;;;;;;;;;;4437833;32;20060;-77
2023/05/20 06:08:45;;;;;;;13.48;6.72;;;;;;;;;;4438240;32;20411;-78
2023/05/20 06:11:10;;;;;;;16.12;6.68;;;;;;;;;;4440004;32;20083;-78
2023/05/20 06:13:36;;;;;;;10.65;5.78;;;;;;;;;;4439718;32;20157;-78
2023/05/20 06:16:01;;;;;;;13.70;6.25;;;;;;;;;;4438844;32;20018;-78
2023/05/20 06:18:26;;;;;;;10.95;5.68;;;;;;;;;;4437612;32;20407;-78
2023/05/20 06:20:55;;;;;;;13.00;6.32;;;;;;;;;;4437616;32;20025;-77
2023/05/20 06:23:20;;;;;;;14.02;6.12;;;;;;;;;;4438212;32;20026;-77
2023/05/20 06:25:46;;;;;;;13.07;5.70;;;;;;;;;;4439928;32;20048;-76
2023/05/20 06:28:11;;;;;;;10.23;5.85;;;;;;;;;;4437366;32;20038;-78
2023/05/20 06:30:37;;;;;;;10.13;5.45;;;;;;;;;;4439697;32;20029;-78
2023/05/20 06:33:02;;;;;;;12.25;6.05;;;;;;;;;;4437729;32;20056;-77
2023/05/20 06:35:27;;;;;;;12.93;6.25;;;;;;;;;;4437588;32;20040;-77
2023/05/20 06:37:54;;;;;;;9.98;5.85;;;;;;;;;;4438297;32;20017;-78
2023/05/20 06:40:19;;;;;;;9.88;5.65;;;;;;;;;;4446495;32;20032;-78
2023/05/20 06:42:45;;;;;;;11.98;5.95;;;;;;;;;;4431720;32;20370;-78
2023/05/20 06:45:10;;;;;;;12.45;5.95;;;;;;;;;;4437904;32;20026;-79
2023/05/20 06:47:35;;;;;;;12.25;5.82;;;;;;;;;;4437443;32;20026;-77
2023/05/20 06:50:00;;;;;;;7.62;5.22;;;;;;;;;;4439727;32;20041;-78
2023/05/20 06:52:26;;;;;;;12.37;6.28;;;;;;;;;;4438640;32;20101;-78
2023/05/20 06:54:51;;;;;;;11.20;5.25;;;;;;;;;;4438105;32;20025;-78
2023/05/20 06:57:16;;;;;;;9.80;5.67;;;;;;;;;;4437094;32;20427;-78
2023/05/20 06:59:41;;;;;;;10.55;5.22;;;;;;;;;;4438181;32;20172;-77
2023/05/20 07:02:06;;;;;;;11.23;6.00;;;;;;;;;;4439233;32;20021;-77
2023/05/20 07:04:31;;;;;;;10.65;5.70;;;;;;;;;;4436547;32;20026;-78
2023/05/20 07:06:57;;;;;;;7.37;5.47;;;;;;;;;;4438810;32;20111;-78
2023/05/20 07:09:22;;;;;;;12.32;6.05;;;;;;;;;;4438436;32;20116;-78
2023/05/20 07:11:47;;;;;;;9.15;6.00;;;;;;;;;;4439227;32;20018;-78
2023/05/20 07:14:13;;;;;;;16.10;5.78;;;;;;;;;;4437979;32;20347;-78
2023/05/20 07:16:38;;;;;;;11.27;5.37;;;;;;;;;;4439255;32;20034;-78
2023/05/20 07:19:03;;;;;;;12.90;5.97;;;;;;;;;;4435274;32;20021;-78
2023/05/20 07:21:28;;;;;;;9.40;5.75;;;;;;;;;;4437687;32;20152;-78
2023/05/20 07:23:54;;;;;;;10.68;5.12;;;;;;;;;;4435937;32;20121;-78
2023/05/20 07:26:20;;;;;;;14.38;5.57;;;;;;;;;;4437251;32;20058;-78
2023/05/20 07:28:46;;;;;;;11.35;5.40;;;;;;;;;;4435828;32;20017;-79
2023/05/20 07:31:11;;;;;;;11.68;5.90;;;;;;;;;;4437637;32;20059;-79
2023/05/20 07:33:36;;;;;;;9.10;5.55;;;;;;;;;;4436690;32;20450;-76
2023/05/20 07:36:01;;;;;;;8.73;4.97;;;;;;;;;;4437789;32;20045;-78
2023/05/20 07:38:26;;;;;;;10.68;5.75;;;;;;;;;;4439425;32;20112;-77
2023/05/20 07:40:52;;;;;;;8.95;5.72;;;;;;;;;;4442111;32;20018;-78
2023/05/20 07:43:17;;;;;;;11.50;5.83;;;;;;;;;;4437492;32;20097;-78
2023/05/20 07:45:42;;;;;;;12.65;5.43;;;;;;;;;;4437465;32;20113;-78
2023/05/20 07:48:09;;;;;;;6.60;4.10;;;;;;;;;;4437956;32;20021;-78
2023/05/20 07:50:35;;;;;;;9.50;4.85;;;;;;;;;;4437062;32;20362;-76
2023/05/20 07:53:00;;;;;;;11.45;5.18;;;;;;;;;;4436572;32;20026;-78
2023/05/20 07:55:25;;;;;;;9.95;4.90;;;;;;;;;;4437588;32;20030;-78
2023/05/20 07:57:50;;;;;;;12.98;4.85;;;;;;;;;;4437987;32;20081;-78
2023/05/20 08:00:16;;;;;;;11.57;4.90;;;;;;;;;;4436077;32;20037;-79
2023/05/20 08:02:41;;;;;;;8.32;5.12;;;;;;;;;;4434661;32;20026;-78
2023/05/20 08:05:07;;;;;;;6.35;4.70;;;;;;;;;;4437061;32;20045;-78
2023/05/20 08:07:32;;;;;;;15.90;4.80;;;;;;;;;;4436116;32;20174;-78
2023/05/20 08:09:57;;;;;;;10.75;5.40;;;;;;;;;;4437593;32;20017;-79
2023/05/20 08:12:23;;;;;;;9.45;5.78;;;;;;;;;;4436415;32;20350;-78
2023/05/20 08:14:48;;;;;;;8.73;5.30;;;;;;;;;;4436454;32;20022;-78
2023/05/20 08:17:13;;;;;;;8.02;4.72;;;;;;;;;;4439850;32;20033;-78
2023/05/20 08:19:38;;;;;;;11.40;4.43;;;;;;;;;;4436705;32;20314;-77
2023/05/20 08:22:04;;;;;;;6.53;4.22;;;;;;;;;;4436194;32;20052;-78
2023/05/20 08:24:30;;;;;;;7.00;4.20;;;;;;;;;;4437263;32;20049;-78
2023/05/20 08:26:55;;;;;;;8.75;4.57;;;;;;;;;;4438013;32;20052;-79
2023/05/20 08:29:20;;;;;;;9.05;4.07;;;;;;;;;;4436573;32;20038;-78
2023/05/20 08:31:45;;;;;;;9.30;3.80;;;;;;;;;;4437126;32;20056;-79
2023/05/20 08:34:10;;;;;;;7.05;3.80;;;;;;;;;;4437588;32;20014;-79
2023/05/20 08:36:36;;;;;;;6.73;4.10;;;;;;;;;;4435774;32;20056;-79
2023/05/20 08:39:01;;;;;;;18.10;4.30;;;;;;;;;;4437590;32;20151;-78
2023/05/20 08:41:26;;;;;;;9.35;4.47;;;;;;;;;;4436606;32;20407;-78
2023/05/20 08:43:52;;;;;;;9.32;4.18;;;;;;;;;;4438699;32;20018;-78
2023/05/20 08:46:17;;;;;;;8.18;4.37;;;;;;;;;;4442322;32;20014;-79
2023/05/20 08:48:43;;;;;;;8.80;3.92;;;;;;;;;;4437055;32;20013;-79
2023/05/20 08:51:09;;;;;;;8.07;3.87;;;;;;;;;;4436024;32;20079;-78
2023/05/20 08:53:34;;;;;;;8.00;4.10;;;;;;;;;;4437510;32;20017;-78
2023/05/20 08:56:01;;;;;;;9.57;3.78;;;;;;;;;;4437795;32;20051;-78
2023/05/20 08:58:27;;;;;;;6.82;3.37;;;;;;;;;;4436266;32;20026;-78
2023/05/20 09:00:53;;;;;;;8.75;3.47;;;;;;;;;;4436245;32;20069;-77
2023/05/20 09:03:19;;;;;;;5.80;3.08;;;;;;;;;;4437692;32;20021;-79
2023/05/20 09:05:45;;;;;;;8.82;3.05;;;;;;;;;;4437263;32;20021;-78
2023/05/20 09:08:10;;;;;;;7.78;2.87;;;;;;;;;;4435870;32;20057;-78
2023/05/20 09:10:36;;;;;;;7.53;2.85;;;;;;;;;;4436840;32;20048;-78
2023/05/20 09:13:03;;;;;;;4.93;2.30;;;;;;;;;;4435481;32;20045;-76
2023/05/20 09:15:28;;;;;;;5.82;2.75;;;;;;;;;;4436055;32;20026;-78
2023/05/20 09:17:54;;;;;;;4.75;2.80;;;;;;;;;;4435340;32;20328;-77
2023/05/20 09:20:20;;;;;;;8.65;3.47;;;;;;;;;;4439203;32;20069;-76
2023/05/20 09:22:45;;;;;;;4.75;2.65;;;;;;;;;;4435569;32;20034;-77
2023/05/20 09:25:12;;;;;;;4.70;3.07;;;;;;;;;;4436468;32;20088;-77
2023/05/20 09:27:38;;;;;;;5.10;2.65;;;;;;;;;;4433951;32;20113;-75
2023/05/20 09:30:06;;;;;;;4.82;2.50;;;;;;;;;;4436105;32;20365;-76
2023/05/20 09:32:31;;;;;;;5.87;2.67;;;;;;;;;;4436690;32;20046;-75
2023/05/20 09:34:57;;;;;;;6.62;2.70;;;;;;;;;;4427450;32;20074;-76
2023/05/20 09:37:25;;;;;;;9.10;2.83;;;;;;;;;;4434382;32;20359;-76
2023/05/20 09:39:50;;;;;;;6.82;2.60;;;;;;;;;;4435898;32;20096;-76
2023/05/20 09:42:21;;;;;;;5.28;2.47;;;;;;;;;;4437837;32;20034;-76
2023/05/20 09:44:47;;;;;;;3.75;2.42;;;;;;;;;;4438447;32;20133;-76
2023/05/20 09:47:13;;;;;;;7.53;2.70;;;;;;;;;;4440397;32;20022;-76
2023/05/20 09:49:39;;;;;;;6.50;2.53;;;;;;;;;;4440304;32;20460;-76
2023/05/20 09:52:04;;;;;;;6.43;2.70;;;;;;;;;;4434938;32;20021;-76
2023/05/20 09:54:29;;;;;;;6.03;3.03;;;;;;;;;;4437889;32;20042;-76
2023/05/20 09:56:56;;;;;;;7.10;2.83;;;;;;;;;;4438277;32;20017;-77
2023/05/20 09:59:22;;;;;;;5.75;2.83;;;;;;;;;;4440312;32;20034;-76
2023/05/20 10:01:47;;;;;;;6.28;2.20;;;;;;;;;;4441492;32;20033;-76
2023/05/20 10:04:14;;;;;;;3.20;2.27;;;;;;;;;;4438183;32;20388;-76
2023/05/20 10:06:49;;;;;;;8.57;2.70;;;;;;;;;;4436844;32;20582;-75
2023/05/20 10:09:32;;;;;;;4.00;2.70;;;;;;;;;;4437066;32;20126;-76
2023/05/20 10:12:09;;;;;;;5.55;2.75;;;;;;;;;;4439771;32;20029;-76
2023/05/20 10:14:51;;;;;;;4.80;2.15;;;;;;;;;;4436905;32;20064;-76
2023/05/20 10:17:24;;;;;;;7.68;2.45;;;;;;;;;;4437294;32;20514;-76
2023/05/20 10:19:49;;;;;;;5.15;1.77;;;;;;;;;;4440112;32;20502;-76
2023/05/20 10:22:25;;;;;;;13.25;2.62;;;;;;;;;;4437591;32;20026;-76
2023/05/20 10:24:56;;;;;;;4.25;2.45;;;;;;;;;;4439683;32;20053;-77
2023/05/20 10:27:22;;;;;;;3.33;2.22;;;;;;;;;;4437610;32;20044;-77
2023/05/20 10:29:51;;;;;;;6.97;2.53;;;;;;;;;;4439629;32;20022;-75
2023/05/20 10:32:32;;;;;;;9.55;2.35;;;;;;;;;;4439473;32;20019;-75
2023/05/20 10:34:58;;;;;;;4.72;2.10;;;;;;;;;;4440532;32;20029;-76
2023/05/20 10:37:25;;;;;;;5.45;2.22;;;;;;;;;;4440084;32;20479;-76
2023/05/20 10:39:50;;;;;;;6.87;2.50;;;;;;;;;;4439787;32;20025;-77
2023/05/20 10:42:26;;;;;;;6.03;2.25;;;;;;;;;;4440062;32;20021;-76
2023/05/20 10:44:51;;;;;;;10.90;3.83;;;;;;;;;;4438383;32;20017;-76
2023/05/20 10:47:17;;;;;;;6.75;2.30;;;;;;;;;;4439374;32;20070;-76
2023/05/20 10:49:46;;;;;;;6.07;2.30;;;;;;;;;;4438359;32;20082;-75
2023/05/20 10:52:16;;;;;;;4.30;2.22;;;;;;;;;;4438805;32;20106;-75
2023/05/20 10:55:08;;;;;;;5.53;2.03;;;;;;;;;;4436941;32;20037;-74
2023/05/20 10:57:33;;;;;;;6.65;2.37;;;;;;;;;;4433543;32;20022;-74
2023/05/20 10:59:59;;;;;;;7.90;2.80;;;;;;;;;;4436844;32;20116;-75
2023/05/20 11:02:25;;;;;;;5.07;2.30;;;;;;;;;;4437383;32;20378;-75
2023/05/20 11:05:00;;;;;;;5.25;2.72;;;;;;;;;;4438633;32;20079;-75
2023/05/20 11:07:26;;;;;;;6.93;2.30;;;;;;;;;;4438295;32;20023;-76
2023/05/20 11:09:51;;;;;;;5.57;2.60;;;;;;;;;;4437552;32;20052;-75
2023/05/20 11:12:17;;;;;;;5.87;2.45;;;;;;;;;;4437218;32;20327;-76
2023/05/20 11:14:42;;;;;;;4.93;2.53;;;;;;;;;;4437340;32;20323;-75
2023/05/20 11:17:07;;;;;;;6.03;2.22;;;;;;;;;;4436988;32;20013;-72
2023/05/20 11:19:35;;;;;;;7.05;2.67;;;;;;;;;;4437728;32;20048;-74
2023/05/20 11:22:00;;;;;;;7.78;3.28;;;;;;;;;;4437043;32;20063;-73
2023/05/20 11:24:26;;;;;;;6.23;2.20;;;;;;;;;;4437184;32;20014;-74
2023/05/20 11:26:52;;;;;;;5.80;2.25;;;;;;;;;;4438084;32;20570;-73
2023/05/20 11:29:18;;;;;;;10.63;2.67;;;;;;;;;;4437355;32;20022;-73
2023/05/20 11:31:44;;;;;;;6.55;2.35;;;;;;;;;;4438709;32;20056;-74
2023/05/20 11:34:09;;;;;;;3.60;2.25;;;;;;;;;;4439383;32;20069;-74
2023/05/20 11:36:39;;;;;;;11.48;2.83;;;;;;;;;;4437008;32;20022;-74
2023/05/20 11:39:04;;;;;;;3.28;2.03;;;;;;;;;;4436315;32;20512;-74
2023/05/20 11:41:29;;;;;;;2.83;2.07;;;;;;;;;;4438692;32;20062;-74
2023/05/20 11:43:56;;;;;;;8.35;2.58;;;;;;;;;;4438453;32;20129;-72
2023/05/20 11:46:21;;;;;;;6.12;2.37;;;;;;;;;;4436270;32;20018;-73
2023/05/20 11:48:56;;;;;;;3.87;2.33;;;;;;;;;;4436696;32;20021;-73
2023/05/20 11:51:27;;;;;;;4.90;2.78;;;;;;;;;;4436827;32;20489;-74
2023/05/20 11:53:59;;;;;;;5.75;2.30;;;;;;;;;;4436199;32;20419;-74
2023/05/20 11:56:24;;;;;;;3.60;2.47;;;;;;;;;;4436366;32;20078;-73
2023/05/20 11:58:50;;;;;;;6.90;3.12;;;;;;;;;;4434604;32;20030;-73
2023/05/20 12:01:15;;;;;;;5.75;2.37;;;;;;;;;;4434871;32;20022;-73
2023/05/20 12:03:40;;;;;;;7.97;2.28;;;;;;;;;;4435869;32;20021;-74
2023/05/20 12:06:05;;;;;;;2.67;2.10;;;;;;;;;;4438192;32;20022;-79
2023/05/20 12:08:31;;;;;;;5.18;2.25;;;;;;;;;;4436949;32;20051;-79
2023/05/20 12:10:56;;;;;;;7.53;2.35;;;;;;;;;;4437224;32;20043;-79
2023/05/20 12:13:22;;;;;;;4.15;2.33;;;;;;;;;;4436837;32;20045;-79
2023/05/20 12:15:47;;;;;;;4.35;2.00;;;;;;;;;;4438247;32;20052;-80
2023/05/20 12:18:13;;;;;;;8.63;2.10;;;;;;;;;;4437784;32;20013;-80
2023/05/20 12:20:38;;;;;;;3.87;3.08;;;;;;;;;;4436130;32;20362;-79
2023/05/20 12:23:03;;;;;;;5.57;2.70;;;;;;;;;;4435133;32;20047;-79
2023/05/20 12:25:28;;;;;;;3.12;2.20;;;;;;;;;;4436921;32;20071;-79
2023/05/20 12:27:54;;;;;;;7.68;2.53;;;;;;;;;;4436615;32;20077;-79
2023/05/20 12:30:20;;;;;;;6.72;2.47;;;;;;;;;;4436062;32;20069;-79
2023/05/20 12:32:46;;;;;;;4.70;2.50;;;;;;;;;;4438554;32;20065;-79
2023/05/20 12:35:13;;;;;;;6.00;2.75;;;;;;;;;;4435045;32;20066;-79
2023/05/20 12:37:40;;;;;;;3.85;2.47;;;;;;;;;;4438437;32;20407;-80
2023/05/20 12:40:08;;;;;;;4.45;2.40;;;;;;;;;;4437265;32;20041;-79
2023/05/20 12:42:37;;;;;;;5.20;2.30;;;;;;;;;;4437416;32;20066;-79
2023/05/20 12:45:03;;;;;;;5.15;2.72;;;;;;;;;;4436619;32;20010;-80
2023/05/20 12:47:28;;;;;;;3.90;1.95;;;;;;;;;;4437966;32;20116;-78
2023/05/20 12:49:53;;;;;;;5.43;2.50;;;;;;;;;;4436773;32;20441;-77
2023/05/20 12:52:19;;;;;;;4.68;2.47;;;;;;;;;;4435962;32;20110;-79
2023/05/20 12:54:44;;;;;;;5.05;2.22;;;;;;;;;;4434957;32;20071;-79
2023/05/20 12:57:09;;;;;;;7.93;2.47;;;;;;;;;;4436826;32;20056;-79
2023/05/20 12:59:34;;;;;;;5.35;2.30;;;;;;;;;;4436023;32;20034;-79
2023/05/20 13:02:00;;;;;;;5.18;3.08;;;;;;;;;;4436319;32;20022;-79
2023/05/20 13:04:25;;;;;;;3.22;1.95;;;;;;;;;;4435370;32;20092;-79
2023/05/20 13:06:50;;;;;;;4.72;2.47;;;;;;;;;;4435266;32;20051;-78
2023/05/20 13:09:16;;;;;;;10.20;2.40;;;;;;;;;;4435320;32;20044;-78
2023/05/20 13:11:41;;;;;;;7.05;2.70;;;;;;;;;;4421237;32;20018;-79
2023/05/20 13:14:06;;;;;;;10.75;2.47;;;;;;;;;;4430161;32;20018;-78
2023/05/20 13:16:31;;;;;;;3.97;2.33;;;;;;;;;;4439852;32;20423;-80
2023/05/20 13:18:56;;;;;;;5.03;2.75;;;;;;;;;;4437254;32;20139;-79
2023/05/20 13:21:22;;;;;;;51.40;47.95;;;;;;;;;;4436722;32;20387;-78
2023/05/20 13:23:47;;;;;;;4.68;2.25;;;;;;;;;;4436096;32;20112;-79
2023/05/20 13:26:12;;;;;;;6.65;2.10;;;;;;;;;;4435833;32;20044;-79
2023/05/20 13:28:37;;;;;;;5.30;2.92;;;;;;;;;;4434260;32;20021;-79
2023/05/20 13:31:03;;;;;;;6.53;2.03;;;;;;;;;;4436695;32;20117;-79
2023/05/20 13:33:28;;;;;;;4.22;2.45;;;;;;;;;;4434294;32;20494;-78
2023/05/20 13:35:54;;;;;;;3.17;2.05;;;;;;;;;;4435886;32;20022;-79
2023/05/20 13:38:19;;;;;;;4.53;2.12;;;;;;;;;;4437135;32;20072;-78
2023/05/20 13:40:44;;;;;;;6.73;2.77;;;;;;;;;;4433325;32;20030;-78
2023/05/20 13:43:09;;;;;;;4.87;2.40;;;;;;;;;;4437105;32;20205;-77
2023/05/20 13:45:34;;;;;;;8.43;2.57;;;;;;;;;;4435657;32;20113;-78
2023/05/20 13:48:00;;;;;;;9.65;2.67;;;;;;;;;;4434635;32;20132;-78
2023/05/20 13:50:25;;;;;;;7.10;2.20;;;;;;;;;;4436994;32;20100;-79
2023/05/20 13:52:50;;;;;;;7.47;2.45;;;;;;;;;;4439429;32;20022;-78
2023/05/20 13:55:15;;;;;;;6.27;2.83;;;;;;;;;;4437207;32;20051;-79
2023/05/20 13:57:41;;;;;;;12.18;3.08;;;;;;;;;;4433206;32;20125;-78
2023/05/20 14:00:07;;;;;;;5.10;2.20;;;;;;;;;;4433849;32;20049;-79
2023/05/20 14:02:32;;;;;;;6.50;3.12;;;;;;;;;;4435193;32;20075;-78
2023/05/20 14:04:57;;;;;;;2.90;1.97;;;;;;;;;;4435725;32;20029;-78
2023/05/20 14:07:22;;;;;;;3.92;2.67;;;;;;;;;;4422856;32;20133;-79
2023/05/20 14:09:47;;;;;;;6.00;2.15;;;;;;;;;;4419365;32;20086;-79
2023/05/20 14:12:13;;;;;;;9.45;2.20;;;;;;;;;;4431171;32;20059;-78
2023/05/20 14:14:38;;;;;;;5.57;2.60;;;;;;;;;;4436091;32;20594;-79
2023/05/20 14:17:03;;;;;;;5.57;2.30;;;;;;;;;;4435584;32;20147;-79
2023/05/20 14:19:28;;;;;;;5.97;3.43;;;;;;;;;;4437575;32;20053;-79
2023/05/20 14:21:54;;;;;;;12.82;3.12;;;;;;;;;;4435113;32;20122;-79
2023/05/20 14:24:19;;;;;;;8.35;2.80;;;;;;;;;;4436737;32;20026;-78
2023/05/20 14:26:44;;;;;;;7.47;2.58;;;;;;;;;;4435835;32;20014;-78
2023/05/20 14:29:09;;;;;;;4.93;2.03;;;;;;;;;;4439001;32;20213;-78
2023/05/20 14:31:34;;;;;;;2.33;1.90;;;;;;;;;;4438382;32;20018;-78
2023/05/20 14:34:00;;;;;;;6.05;2.33;;;;;;;;;;4438624;32;20454;-78
2023/05/20 14:36:25;;;;;;;5.22;2.20;;;;;;;;;;4439093;32;20063;-78